createdAt,value
2019-01-31T00:05:38.394Z,8.43
2019-01-31T00:11:45.654Z,10.53
2019-01-31T00:18:05.581Z,7.90
2019-01-31T00:23:46.698Z,7.77
2019-01-31T00:29:35.250Z,8.17
2019-01-31T00:35:16.887Z,9.57
2019-01-31T00:40:48.967Z,6.63
2019-01-31T00:46:38.220Z,5.13
2019-01-31T00:52:13.346Z,5.57
2019-01-31T00:57:57.232Z,7.70
2019-01-31T01:04:29.442Z,7.13
2019-01-31T01:09:49.412Z,8.27
2019-01-31T01:16:21.099Z,7.90
2019-01-31T01:22:18.078Z,5.63
2019-01-31T01:28:19.711Z,7.70
2019-01-31T01:34:31.453Z,6.03
2019-01-31T01:41:00.680Z,4.53
2019-01-31T01:47:12.494Z,8.90
2019-01-31T01:53:10.421Z,7.97
2019-01-31T01:59:36.965Z,8.87
2019-01-31T02:05:41.207Z,5.67
2019-01-31T02:11:35.552Z,8.00
2019-01-31T02:17:27.722Z,9.47
2019-01-31T02:22:57.519Z,10.83
2019-01-31T02:28:40.277Z,9.47
2019-01-31T02:34:40.533Z,9.03
2019-01-31T02:40:45.284Z,6.67
2019-01-31T02:46:34.295Z,7.80
2019-01-31T02:52:45.372Z,7.93
2019-01-31T02:58:51.837Z,5.97
2019-01-31T03:04:57.628Z,5.77
2019-01-31T03:10:57.782Z,6.50
2019-01-31T03:17:07.740Z,9.43
2019-01-31T03:23:01.947Z,8.37
2019-01-31T03:29:22.274Z,8.37
2019-01-31T03:35:13.146Z,7.83
2019-01-31T03:40:41.613Z,10.30
2019-01-31T03:46:45.225Z,8.03
2019-01-31T03:52:42.668Z,8.63
2019-01-31T03:58:23.485Z,10.43
2019-01-31T04:03:55.023Z,8.20
2019-01-31T04:09:00.376Z,8.20
2019-01-31T04:14:05.937Z,10.43
2019-01-31T04:19:11.245Z,13.80
2019-01-31T04:24:16.566Z,9.37
2019-01-31T04:29:21.870Z,9.83
2019-01-31T04:34:27.171Z,11.37
2019-01-31T04:39:32.568Z,10.60
2019-01-31T04:44:37.863Z,8.00
2019-01-31T04:49:43.125Z,9.70
2019-01-31T04:54:48.457Z,13.60
2019-01-31T04:59:53.758Z,7.50
2019-01-31T05:04:59.116Z,6.80
2019-01-31T05:10:05.256Z,9.00
2019-01-31T05:15:13.046Z,7.47
2019-01-31T05:20:18.963Z,12.40
2019-01-31T05:25:24.253Z,8.47
2019-01-31T05:30:29.554Z,8.23
2019-01-31T05:35:34.847Z,9.13
2019-01-31T05:40:40.198Z,9.47
2019-01-31T05:45:45.496Z,6.97
2019-01-31T05:50:50.826Z,9.00
2019-01-31T05:55:56.128Z,12.87
2019-01-31T06:01:01.432Z,9.33
2019-01-31T06:06:06.713Z,11.37
2019-01-31T06:11:12.018Z,9.80
2019-01-31T06:16:17.525Z,8.90
2019-01-31T06:21:23.002Z,9.53
2019-01-31T06:26:28.293Z,10.87
2019-01-31T06:31:33.629Z,11.53
2019-01-31T06:36:39.069Z,10.97
2019-01-31T06:41:44.378Z,11.33
2019-01-31T06:46:49.615Z,9.47
2019-01-31T06:51:54.936Z,13.30
2019-01-31T06:57:00.243Z,12.80
2019-01-31T07:02:05.556Z,14.60
2019-01-31T07:07:10.854Z,12.83
2019-01-31T07:12:16.186Z,11.67
2019-01-31T07:17:21.456Z,12.43
2019-01-31T07:22:26.766Z,13.00
2019-01-31T07:27:32.221Z,13.90
2019-01-31T07:32:37.521Z,13.33
2019-01-31T07:37:42.917Z,12.70
2019-01-31T07:42:48.272Z,14.77
2019-01-31T07:47:53.727Z,13.80
2019-01-31T07:52:59.086Z,13.47
2019-01-31T07:58:04.417Z,14.87
2019-01-31T08:03:09.760Z,11.83
2019-01-31T08:08:15.307Z,12.87
2019-01-31T08:13:20.626Z,14.73
2019-01-31T08:18:26.126Z,16.53
2019-01-31T08:23:31.443Z,11.67
2019-01-31T08:28:36.816Z,13.73
2019-01-31T08:33:42.181Z,12.73
2019-01-31T08:38:47.522Z,12.97
2019-01-31T08:43:52.824Z,14.20
2019-01-31T08:48:58.150Z,10.43
2019-01-31T08:54:03.642Z,12.43
2019-01-31T08:59:08.926Z,12.93
2019-01-31T09:04:14.221Z,12.13
2019-01-31T09:09:19.507Z,11.00
2019-01-31T09:14:24.801Z,6.83
2019-01-31T09:19:30.094Z,6.50
2019-01-31T09:25:35.350Z,8.17
2019-01-31T09:31:28.171Z,6.07
2019-01-31T09:37:33.804Z,11.60
2019-01-31T09:43:35.247Z,8.87
2019-01-31T09:49:07.251Z,10.00
2019-01-31T09:55:08.846Z,8.77
2019-01-31T10:00:53.548Z,8.73
2019-01-31T10:07:17.210Z,9.83
2019-01-31T10:13:22.245Z,12.33
2019-01-31T10:19:29.153Z,9.00
2019-01-31T10:25:45.772Z,9.87
2019-01-31T10:31:52.384Z,9.60
2019-01-31T10:37:48.850Z,10.67
2019-01-31T10:44:09.301Z,10.33
2019-01-31T10:50:35.517Z,15.90
2019-01-31T10:56:35.858Z,9.53
2019-01-31T11:02:41.971Z,12.37
2019-01-31T11:08:35.326Z,13.80
2019-01-31T11:14:26.871Z,11.53
2019-01-31T11:19:54.147Z,8.97
2019-01-31T11:25:45.815Z,14.40
2019-01-31T11:31:53.919Z,9.20
2019-01-31T11:37:59.919Z,12.93
2019-01-31T11:43:51.216Z,9.27
2019-01-31T11:49:45.458Z,14.27
2019-01-31T11:55:38.875Z,17.40
2019-01-31T12:00:44.223Z,20.27
2019-01-31T12:05:49.550Z,15.63
2019-01-31T12:10:54.826Z,18.47
2019-01-31T12:16:00.153Z,17.67
2019-01-31T12:21:05.518Z,16.77
2019-01-31T12:26:10.837Z,19.57
2019-01-31T12:31:16.138Z,18.10
2019-01-31T12:36:21.463Z,21.07
2019-01-31T12:41:26.814Z,17.40
2019-01-31T12:46:32.829Z,18.67
2019-01-31T12:51:38.243Z,19.87
2019-01-31T12:56:43.528Z,18.17
2019-01-31T13:01:48.878Z,15.70
2019-01-31T13:06:54.252Z,15.60
2019-01-31T13:11:59.520Z,18.17
2019-01-31T13:17:05.926Z,20.97
2019-01-31T13:22:11.200Z,21.30
2019-01-31T13:27:16.539Z,20.87
2019-01-31T13:32:22.010Z,17.53
2019-01-31T13:37:27.363Z,26.90
2019-01-31T13:42:32.672Z,19.60
2019-01-31T13:47:37.979Z,23.10
2019-01-31T13:52:43.289Z,19.83
2019-01-31T13:57:48.714Z,19.57
2019-01-31T14:02:54.047Z,20.57
2019-01-31T14:07:59.457Z,16.87
2019-01-31T14:13:04.778Z,19.23
2019-01-31T14:18:10.128Z,21.23
2019-01-31T14:23:15.545Z,24.43
2019-01-31T14:28:20.855Z,28.23
2019-01-31T14:33:27.258Z,25.60
2019-01-31T14:38:32.668Z,23.43
2019-01-31T14:43:38.029Z,25.73
2019-01-31T14:48:43.504Z,25.73
2019-01-31T14:53:48.861Z,26.60
2019-01-31T14:58:54.451Z,24.20
2019-01-31T15:03:59.742Z,26.23
2019-01-31T15:09:08.829Z,28.47
2019-01-31T15:14:14.247Z,29.93
2019-01-31T15:19:19.617Z,31.43
2019-01-31T15:24:24.921Z,33.30
2019-01-31T15:29:30.174Z,36.83
2019-01-31T15:34:35.505Z,36.60
2019-01-31T15:39:40.830Z,36.17
2019-01-31T15:44:46.174Z,39.00
2019-01-31T15:49:51.485Z,44.67
2019-01-31T15:54:56.842Z,47.10
2019-01-31T16:00:02.175Z,46.47
2019-01-31T16:05:18.615Z,38.57
2019-01-31T16:10:14.621Z,38.80
2019-01-31T16:15:20.282Z,39.13
2019-01-31T16:20:25.679Z,37.50
2019-01-31T16:25:31.007Z,41.97
2019-01-31T16:30:36.317Z,37.43
2019-01-31T16:35:42.836Z,35.20
2019-01-31T16:40:48.182Z,36.30
2019-01-31T16:45:53.472Z,34.73
2019-01-31T16:50:58.836Z,33.73
2019-01-31T16:56:04.125Z,31.37
2019-01-31T17:01:09.499Z,32.40
2019-01-31T17:06:14.890Z,31.00
2019-01-31T17:11:21.730Z,27.43
2019-01-31T17:16:28.728Z,33.10
2019-01-31T17:21:34.105Z,33.67
2019-01-31T17:26:39.448Z,33.43
2019-01-31T17:31:44.940Z,30.20
2019-01-31T17:36:50.314Z,30.53
2019-01-31T17:41:56.021Z,32.27
2019-01-31T17:47:01.641Z,34.60
2019-01-31T17:52:07.203Z,28.57
2019-01-31T17:57:12.763Z,27.57
2019-01-31T18:02:18.975Z,24.80
2019-01-31T18:07:24.661Z,29.90
2019-01-31T18:12:31.121Z,28.40
2019-01-31T18:17:36.509Z,27.27
2019-01-31T18:22:42.081Z,25.43
2019-01-31T18:27:47.429Z,24.13
2019-01-31T18:32:52.730Z,24.57
2019-01-31T18:37:58.156Z,23.97
2019-01-31T18:43:03.779Z,20.00
2019-01-31T18:48:09.166Z,17.03
2019-01-31T18:53:14.558Z,22.33
2019-01-31T18:58:20.391Z,20.63
2019-01-31T19:03:26.255Z,27.10
2019-01-31T19:08:32.205Z,20.90
2019-01-31T19:13:37.883Z,20.37
2019-01-31T19:18:43.574Z,18.63
2019-01-31T19:23:49.401Z,16.53
2019-01-31T19:28:54.921Z,16.40
2019-01-31T19:34:00.476Z,16.00
2019-01-31T19:39:09.874Z,16.47
2019-01-31T19:44:15.334Z,16.37
2019-01-31T19:49:20.784Z,16.83
2019-01-31T19:54:26.353Z,18.70
2019-01-31T19:59:32.139Z,14.53
2019-01-31T20:04:37.663Z,18.93
2019-01-31T20:09:44.971Z,19.23
2019-01-31T20:14:50.380Z,17.70
2019-01-31T20:19:55.827Z,15.60
2019-01-31T20:25:01.240Z,14.07
2019-01-31T20:30:07.934Z,15.47
2019-01-31T20:35:13.497Z,17.97
2019-01-31T20:40:28.087Z,15.30
2019-01-31T20:45:33.501Z,15.33
2019-01-31T20:50:42.946Z,15.30
2019-01-31T20:55:48.468Z,17.30
2019-01-31T21:00:53.877Z,16.17
2019-01-31T21:05:59.258Z,17.23
2019-01-31T21:11:04.595Z,14.63
2019-01-31T21:16:09.925Z,15.13
2019-01-31T21:21:15.289Z,17.57
2019-01-31T21:26:20.655Z,15.30
2019-01-31T21:31:26.039Z,16.03
2019-01-31T21:36:31.436Z,15.17
2019-01-31T21:41:36.798Z,19.43
2019-01-31T21:46:42.126Z,15.53
2019-01-31T21:51:47.462Z,16.07
2019-01-31T21:56:52.757Z,15.73
2019-01-31T22:01:58.040Z,14.87
2019-01-31T22:07:03.371Z,16.97
2019-01-31T22:12:08.736Z,17.63
2019-01-31T22:17:15.055Z,16.60
2019-01-31T22:22:20.468Z,13.97
2019-01-31T22:27:25.765Z,13.23
2019-01-31T22:32:31.689Z,14.47
2019-01-31T22:37:37.080Z,14.03
2019-01-31T22:42:43.161Z,13.47
2019-01-31T22:47:48.555Z,14.70
2019-01-31T22:52:53.950Z,12.27
2019-01-31T22:57:59.295Z,13.60
2019-01-31T23:03:04.677Z,10.93
2019-01-31T23:08:10.212Z,10.93
2019-01-31T23:13:16.180Z,11.23
2019-01-31T23:18:21.564Z,11.40
2019-01-31T23:23:26.857Z,11.87
2019-01-31T23:28:32.119Z,9.20
2019-01-31T23:33:37.413Z,9.53
2019-01-31T23:38:42.752Z,11.10
2019-01-31T23:43:48.063Z,10.50
2019-01-31T23:48:53.374Z,10.90
2019-01-31T23:53:58.616Z,9.83
2019-01-31T23:59:03.898Z,9.50
